sensor_id;sensor_type;location;lat;lon;timestamp;pressure;altitude;pressure_sealevel;temperature;humidity
41078;BME280;26823;42.662;23.352;2023-04-20T00:01:57;94418.47;;;9.57;77.06
41078;BME280;26823;42.662;23.352;2023-04-20T00:04:27;94424.22;;;9.45;77.88
41078;BME280;26823;42.662;23.352;2023-04-20T00:06:52;94418.31;;;9.38;78.88
41078;BME280;26823;42.662;23.352;2023-04-20T00:09:18;94419.34;;;9.47;75.30
41078;BME280;26823;42.662;23.352;2023-04-20T00:11:51;94412.34;;;9.41;75.85
41078;BME280;26823;42.662;23.352;2023-04-20T00:14:17;94411.81;;;9.44;75.52
41078;BME280;26823;42.662;23.352;2023-04-20T00:16:43;94409.69;;;9.36;75.02
41078;BME280;26823;42.662;23.352;2023-04-20T00:19:08;94403.47;;;9.40;76.06
41078;BME280;26823;42.662;23.352;2023-04-20T00:21:34;94409.16;;;9.39;76.24
41078;BME280;26823;42.662;23.352;2023-04-20T00:24:00;94405.38;;;9.35;75.91
41078;BME280;26823;42.662;23.352;2023-04-20T00:26:25;94402.75;;;9.24;76.64
41078;BME280;26823;42.662;23.352;2023-04-20T00:28:51;94404.59;;;9.34;76.34
41078;BME280;26823;42.662;23.352;2023-04-20T00:31:17;94403.59;;;9.20;77.11
41078;BME280;26823;42.662;23.352;2023-04-20T00:33:43;94372.09;;;9.10;76.09
41078;BME280;26823;42.662;23.352;2023-04-20T00:36:08;94394.69;;;9.19;76.54
41078;BME280;26823;42.662;23.352;2023-04-20T00:38:34;94398.47;;;9.18;77.06
41078;BME280;26823;42.662;23.352;2023-04-20T00:41:00;94346.41;;;8.78;78.41
41078;BME280;26823;42.662;23.352;2023-04-20T00:43:25;94378.38;;;8.95;77.15
41078;BME280;26823;42.662;23.352;2023-04-20T00:45:51;94395.91;;;8.97;77.54
41078;BME280;26823;42.662;23.352;2023-04-20T00:48:17;94399.09;;;9.05;77.34
41078;BME280;26823;42.662;23.352;2023-04-20T00:50:43;94376.00;;;8.88;78.27
41078;BME280;26823;42.662;23.352;2023-04-20T00:53:09;94391.34;;;8.93;78.50
41078;BME280;26823;42.662;23.352;2023-04-20T00:55:36;94396.72;;;8.93;78.20
41078;BME280;26823;42.662;23.352;2023-04-20T00:58:01;94392.63;;;9.06;77.21
41078;BME280;26823;42.662;23.352;2023-04-20T01:00:27;94395.22;;;9.21;76.84
41078;BME280;26823;42.662;23.352;2023-04-20T01:02:52;94392.03;;;9.14;78.38
41078;BME280;26823;42.662;23.352;2023-04-20T01:05:18;94394.16;;;9.22;78.08
41078;BME280;26823;42.662;23.352;2023-04-20T01:07:44;94395.50;;;9.20;76.39
41078;BME280;26823;42.662;23.352;2023-04-20T01:10:09;94382.84;;;9.15;77.82
41078;BME280;26823;42.662;23.352;2023-04-20T01:12:35;94383.81;;;8.90;77.98
41078;BME280;26823;42.662;23.352;2023-04-20T01:15:04;94395.09;;;8.97;78.08
41078;BME280;26823;42.662;23.352;2023-04-20T01:17:34;94389.47;;;8.93;78.80
41078;BME280;26823;42.662;23.352;2023-04-20T01:20:02;94392.13;;;8.98;79.25
41078;BME280;26823;42.662;23.352;2023-04-20T01:22:28;94392.91;;;8.99;78.78
41078;BME280;26823;42.662;23.352;2023-04-20T01:24:53;94385.50;;;8.75;80.17
41078;BME280;26823;42.662;23.352;2023-04-20T01:27:19;94387.34;;;8.80;80.08
41078;BME280;26823;42.662;23.352;2023-04-20T01:29:44;94394.63;;;8.85;79.29
41078;BME280;26823;42.662;23.352;2023-04-20T01:32:10;94385.41;;;8.96;78.87
41078;BME280;26823;42.662;23.352;2023-04-20T01:34:36;94385.94;;;8.93;78.77
41078;BME280;26823;42.662;23.352;2023-04-20T01:37:02;94390.22;;;8.99;79.76
41078;BME280;26823;42.662;23.352;2023-04-20T01:39:35;94392.38;;;9.02;78.89
41078;BME280;26823;42.662;23.352;2023-04-20T01:42:01;94384.03;;;8.98;78.70
41078;BME280;26823;42.662;23.352;2023-04-20T01:44:26;94385.34;;;9.06;78.24
41078;BME280;26823;42.662;23.352;2023-04-20T01:46:52;94385.88;;;9.08;77.83
41078;BME280;26823;42.662;23.352;2023-04-20T01:49:17;94375.34;;;9.07;78.05
41078;BME280;26823;42.662;23.352;2023-04-20T01:51:43;94379.16;;;9.06;78.96
41078;BME280;26823;42.662;23.352;2023-04-20T01:54:09;94376.19;;;9.02;79.21
41078;BME280;26823;42.662;23.352;2023-04-20T01:56:34;94372.41;;;9.03;78.69
41078;BME280;26823;42.662;23.352;2023-04-20T01:59:00;94374.88;;;9.00;78.69
41078;BME280;26823;42.662;23.352;2023-04-20T02:01:25;94373.13;;;9.14;78.79
41078;BME280;26823;42.662;23.352;2023-04-20T02:03:51;94361.06;;;9.06;78.02
41078;BME280;26823;42.662;23.352;2023-04-20T02:06:16;94367.84;;;8.98;78.38
41078;BME280;26823;42.662;23.352;2023-04-20T02:08:41;94360.34;;;8.90;78.33
41078;BME280;26823;42.662;23.352;2023-04-20T02:11:07;94375.13;;;8.98;78.08
41078;BME280;26823;42.662;23.352;2023-04-20T02:13:32;94361.97;;;8.86;78.22
41078;BME280;26823;42.662;23.352;2023-04-20T02:15:58;94352.06;;;8.76;79.07
41078;BME280;26823;42.662;23.352;2023-04-20T02:18:23;94372.47;;;8.88;79.53
41078;BME280;26823;42.662;23.352;2023-04-20T02:20:49;94366.25;;;8.92;79.40
41078;BME280;26823;42.662;23.352;2023-04-20T02:23:14;94367.09;;;8.88;78.62
41078;BME280;26823;42.662;23.352;2023-04-20T02:25:40;94361.78;;;8.72;79.53
41078;BME280;26823;42.662;23.352;2023-04-20T02:28:05;94350.59;;;8.39;80.19
41078;BME280;26823;42.662;23.352;2023-04-20T02:30:31;94362.16;;;8.55;80.25
41078;BME280;26823;42.662;23.352;2023-04-20T02:32:56;94362.13;;;8.60;80.38
41078;BME280;26823;42.662;23.352;2023-04-20T02:35:22;94363.50;;;8.53;79.93
41078;BME280;26823;42.662;23.352;2023-04-20T02:37:47;94364.88;;;8.45;81.48
41078;BME280;26823;42.662;23.352;2023-04-20T02:40:13;94347.06;;;8.54;80.48
41078;BME280;26823;42.662;23.352;2023-04-20T02:42:39;94375.03;;;8.63;80.51
41078;BME280;26823;42.662;23.352;2023-04-20T02:45:05;94372.66;;;8.57;80.84
41078;BME280;26823;42.662;23.352;2023-04-20T02:47:31;94377.75;;;8.58;80.79
41078;BME280;26823;42.662;23.352;2023-04-20T02:49:57;94377.22;;;8.56;80.71
41078;BME280;26823;42.662;23.352;2023-04-20T02:52:22;94377.50;;;8.55;81.02
41078;BME280;26823;42.662;23.352;2023-04-20T02:54:48;94377.84;;;8.32;81.07
41078;BME280;26823;42.662;23.352;2023-04-20T02:57:13;94362.16;;;8.40;81.63
41078;BME280;26823;42.662;23.352;2023-04-20T02:59:39;94368.84;;;8.63;80.22
41078;BME280;26823;42.662;23.352;2023-04-20T03:02:04;94375.56;;;8.71;80.77
41078;BME280;26823;42.662;23.352;2023-04-20T03:04:30;94373.41;;;8.73;80.31
41078;BME280;26823;42.662;23.352;2023-04-20T03:06:56;94378.19;;;8.81;80.45
41078;BME280;26823;42.662;23.352;2023-04-20T03:09:22;94351.56;;;8.69;80.51
41078;BME280;26823;42.662;23.352;2023-04-20T03:11:49;94375.19;;;8.88;80.28
41078;BME280;26823;42.662;23.352;2023-04-20T03:14:14;94365.50;;;8.87;80.00
41078;BME280;26823;42.662;23.352;2023-04-20T03:16:40;94372.00;;;8.80;78.49
41078;BME280;26823;42.662;23.352;2023-04-20T03:19:06;94357.44;;;8.76;79.24
41078;BME280;26823;42.662;23.352;2023-04-20T03:21:31;94372.00;;;8.80;79.20
41078;BME280;26823;42.662;23.352;2023-04-20T03:23:58;94373.81;;;8.90;79.16
41078;BME280;26823;42.662;23.352;2023-04-20T03:26:23;94375.75;;;8.85;78.85
41078;BME280;26823;42.662;23.352;2023-04-20T03:28:55;94358.50;;;8.86;78.29
41078;BME280;26823;42.662;23.352;2023-04-20T03:31:20;94372.00;;;8.80;79.28
41078;BME280;26823;42.662;23.352;2023-04-20T03:33:46;94381.69;;;8.81;79.75
41078;BME280;26823;42.662;23.352;2023-04-20T03:36:11;94373.06;;;8.85;78.06
41078;BME280;26823;42.662;23.352;2023-04-20T03:38:37;94383.22;;;9.03;78.59
41078;BME280;26823;42.662;23.352;2023-04-20T03:41:02;94364.34;;;8.93;79.03
41078;BME280;26823;42.662;23.352;2023-04-20T03:43:28;94367.94;;;8.83;78.73
41078;BME280;26823;42.662;23.352;2023-04-20T03:45:54;94368.50;;;8.75;77.85
41078;BME280;26823;42.662;23.352;2023-04-20T03:48:20;94362.03;;;8.76;77.37
41078;BME280;26823;42.662;23.352;2023-04-20T03:50:45;94373.03;;;8.90;78.82
41078;BME280;26823;42.662;23.352;2023-04-20T03:53:10;94371.94;;;8.91;77.79
41078;BME280;26823;42.662;23.352;2023-04-20T03:55:36;94376.75;;;8.94;78.69
41078;BME280;26823;42.662;23.352;2023-04-20T03:58:01;94378.50;;;8.74;78.36
41078;BME280;26823;42.662;23.352;2023-04-20T04:00:27;94380.16;;;8.65;78.59
41078;BME280;26823;42.662;23.352;2023-04-20T04:02:52;94374.47;;;8.72;78.37
41078;BME280;26823;42.662;23.352;2023-04-20T04:05:18;94384.34;;;8.92;78.01
41078;BME280;26823;42.662;23.352;2023-04-20T04:07:43;94383.56;;;8.86;77.92
41078;BME280;26823;42.662;23.352;2023-04-20T04:10:09;94382.25;;;8.78;77.51
41078;BME280;26823;42.662;23.352;2023-04-20T04:12:34;94380.97;;;8.65;79.08
41078;BME280;26823;42.662;23.352;2023-04-20T04:15:00;94390.69;;;8.61;79.02
41078;BME280;26823;42.662;23.352;2023-04-20T04:17:26;94390.91;;;8.75;78.63
41078;BME280;26823;42.662;23.352;2023-04-20T04:19:51;94392.84;;;8.64;78.13
41078;BME280;26823;42.662;23.352;2023-04-20T04:22:17;94393.53;;;8.91;77.96
41078;BME280;26823;42.662;23.352;2023-04-20T04:24:42;94389.19;;;8.95;78.21
41078;BME280;26823;42.662;23.352;2023-04-20T04:27:08;94392.13;;;8.98;78.87
41078;BME280;26823;42.662;23.352;2023-04-20T04:29:35;94397.22;;;9.00;78.72
41078;BME280;26823;42.662;23.352;2023-04-20T04:32:03;94386.16;;;9.02;77.64
41078;BME280;26823;42.662;23.352;2023-04-20T04:34:30;94400.78;;;8.90;76.09
41078;BME280;26823;42.662;23.352;2023-04-20T04:36:55;94390.63;;;8.77;76.12
41078;BME280;26823;42.662;23.352;2023-04-20T04:39:20;94397.53;;;8.98;75.96
41078;BME280;26823;42.662;23.352;2023-04-20T04:41:46;94393.97;;;9.08;76.51
41078;BME280;26823;42.662;23.352;2023-04-20T04:44:11;94397.50;;;9.04;77.21
41078;BME280;26823;42.662;23.352;2023-04-20T04:46:37;94403.72;;;8.99;77.02
41078;BME280;26823;42.662;23.352;2023-04-20T04:49:02;94391.69;;;8.81;76.99
41078;BME280;26823;42.662;23.352;2023-04-20T04:51:28;94405.94;;;8.87;77.66
41078;BME280;26823;42.662;23.352;2023-04-20T04:53:54;94409.06;;;9.04;76.14
41078;BME280;26823;42.662;23.352;2023-04-20T04:56:21;94418.66;;;9.26;76.41
41078;BME280;26823;42.662;23.352;2023-04-20T04:58:47;94421.31;;;9.36;73.91
41078;BME280;26823;42.662;23.352;2023-04-20T05:01:13;94407.88;;;9.26;74.86
41078;BME280;26823;42.662;23.352;2023-04-20T05:03:38;94413.25;;;9.26;75.13
41078;BME280;26823;42.662;23.352;2023-04-20T05:06:03;94406.03;;;9.21;75.86
41078;BME280;26823;42.662;23.352;2023-04-20T05:08:29;94419.91;;;9.44;75.03
41078;BME280;26823;42.662;23.352;2023-04-20T05:10:56;94417.47;;;9.48;75.94
41078;BME280;26823;42.662;23.352;2023-04-20T05:13:21;94412.06;;;9.48;75.37
41078;BME280;26823;42.662;23.352;2023-04-20T05:15:47;94429.53;;;9.55;74.28
41078;BME280;26823;42.662;23.352;2023-04-20T05:18:12;94421.16;;;9.57;74.72
41078;BME280;26823;42.662;23.352;2023-04-20T05:20:38;94412.28;;;9.51;75.77
41078;BME280;26823;42.662;23.352;2023-04-20T05:23:03;94398.59;;;9.42;74.01
41078;BME280;26823;42.662;23.352;2023-04-20T05:25:29;94416.34;;;9.49;76.15
41078;BME280;26823;42.662;23.352;2023-04-20T05:27:54;94417.13;;;9.54;74.66
41078;BME280;26823;42.662;23.352;2023-04-20T05:30:20;94411.72;;;9.54;75.16
41078;BME280;26823;42.662;23.352;2023-04-20T05:32:46;94413.28;;;9.66;75.10
41078;BME280;26823;42.662;23.352;2023-04-20T05:35:11;94412.06;;;9.82;74.87
41078;BME280;26823;42.662;23.352;2023-04-20T05:37:36;94425.47;;;9.92;74.18
41078;BME280;26823;42.662;23.352;2023-04-20T05:40:02;94418.59;;;9.76;73.64
41078;BME280;26823;42.662;23.352;2023-04-20T05:42:28;94436.84;;;9.89;72.68
41078;BME280;26823;42.662;23.352;2023-04-20T05:44:53;94435.66;;;10.01;72.65
41078;BME280;26823;42.662;23.352;2023-04-20T05:47:18;94435.09;;;10.04;72.27
41078;BME280;26823;42.662;23.352;2023-04-20T05:49:44;94428.91;;;9.98;73.17
41078;BME280;26823;42.662;23.352;2023-04-20T05:52:10;94431.41;;;10.24;71.36
41078;BME280;26823;42.662;23.352;2023-04-20T05:54:35;94439.38;;;10.10;72.07
41078;BME280;26823;42.662;23.352;2023-04-20T05:57:01;94425.56;;;10.11;71.89
41078;BME280;26823;42.662;23.352;2023-04-20T05:59:26;94436.72;;;10.05;72.36
41078;BME280;26823;42.662;23.352;2023-04-20T06:01:52;94433.63;;;9.87;73.84
41078;BME280;26823;42.662;23.352;2023-04-20T06:04:17;94438.09;;;10.02;74.07
41078;BME280;26823;42.662;23.352;2023-04-20T06:06:43;94430.53;;;9.99;75.07
41078;BME280;26823;42.662;23.352;2023-04-20T06:09:08;94436.31;;;10.17;76.75
41078;BME280;26823;42.662;23.352;2023-04-20T06:11:34;94423.25;;;10.00;74.71
41078;BME280;26823;42.662;23.352;2023-04-20T06:13:59;94428.84;;;9.74;75.63
41078;BME280;26823;42.662;23.352;2023-04-20T06:16:25;94421.25;;;9.81;75.83
41078;BME280;26823;42.662;23.352;2023-04-20T06:18:50;94435.56;;;10.11;75.03
41078;BME280;26823;42.662;23.352;2023-04-20T06:21:16;94435.19;;;9.93;76.89
41078;BME280;26823;42.662;23.352;2023-04-20T06:23:42;94430.06;;;9.92;76.25
41078;BME280;26823;42.662;23.352;2023-04-20T06:26:09;94433.56;;;9.92;78.44
41078;BME280;26823;42.662;23.352;2023-04-20T06:28:35;94443.53;;;9.97;76.92
41078;BME280;26823;42.662;23.352;2023-04-20T06:31:02;94427.28;;;10.02;77.19
41078;BME280;26823;42.662;23.352;2023-04-20T06:33:27;94444.22;;;10.08;77.74
41078;BME280;26823;42.662;23.352;2023-04-20T06:35:53;94438.88;;;10.32;76.34
41078;BME280;26823;42.662;23.352;2023-04-20T06:38:21;94442.69;;;10.31;74.31
41078;BME280;26823;42.662;23.352;2023-04-20T06:40:46;94442.53;;;10.17;75.06
41078;BME280;26823;42.662;23.352;2023-04-20T06:43:18;94439.16;;;10.31;75.00
41078;BME280;26823;42.662;23.352;2023-04-20T06:45:43;94445.75;;;10.19;74.74
41078;BME280;26823;42.662;23.352;2023-04-20T06:48:09;94438.47;;;10.20;74.85
41078;BME280;26823;42.662;23.352;2023-04-20T06:50:34;94447.38;;;10.20;73.92
41078;BME280;26823;42.662;23.352;2023-04-20T06:53:01;94459.75;;;10.26;75.98
41078;BME280;26823;42.662;23.352;2023-04-20T06:55:28;94441.81;;;10.06;75.08
41078;BME280;26823;42.662;23.352;2023-04-20T06:57:53;94453.06;;;10.19;73.87
41078;BME280;26823;42.662;23.352;2023-04-20T07:00:19;94448.13;;;9.96;75.73
41078;BME280;26823;42.662;23.352;2023-04-20T07:02:46;94440.34;;;9.90;75.80
41078;BME280;26823;42.662;23.352;2023-04-20T07:05:13;94461.88;;;10.00;75.96
41078;BME280;26823;42.662;23.352;2023-04-20T07:07:39;94473.06;;;10.18;76.29
41078;BME280;26823;42.662;23.352;2023-04-20T07:10:06;94469.03;;;10.15;76.56
41078;BME280;26823;42.662;23.352;2023-04-20T07:12:33;94472.97;;;10.28;74.99
41078;BME280;26823;42.662;23.352;2023-04-20T07:15:00;94468.66;;;10.27;76.21
41078;BME280;26823;42.662;23.352;2023-04-20T07:17:27;94467.31;;;10.24;76.95
41078;BME280;26823;42.662;23.352;2023-04-20T07:19:52;94470.56;;;10.26;76.64
41078;BME280;26823;42.662;23.352;2023-04-20T07:22:17;94471.03;;;10.34;76.06
41078;BME280;26823;42.662;23.352;2023-04-20T07:24:43;94473.19;;;10.37;75.88
41078;BME280;26823;42.662;23.352;2023-04-20T07:27:09;94472.38;;;10.66;75.92
41078;BME280;26823;42.662;23.352;2023-04-20T07:29:34;94479.59;;;10.70;74.83
41078;BME280;26823;42.662;23.352;2023-04-20T07:32:00;94471.16;;;10.77;74.63
41078;BME280;26823;42.662;23.352;2023-04-20T07:34:25;94459.81;;;10.75;73.65
41078;BME280;26823;42.662;23.352;2023-04-20T07:36:51;94475.34;;;10.88;74.48
41078;BME280;26823;42.662;23.352;2023-04-20T07:39:16;94450.41;;;10.91;73.95
41078;BME280;26823;42.662;23.352;2023-04-20T07:41:42;94462.78;;;10.98;74.41
41078;BME280;26823;42.662;23.352;2023-04-20T07:44:08;94478.53;;;11.96;68.99
41078;BME280;26823;42.662;23.352;2023-04-20T07:46:33;94464.59;;;11.26;69.47
41078;BME280;26823;42.662;23.352;2023-04-20T07:48:58;94461.53;;;11.33;69.66
41078;BME280;26823;42.662;23.352;2023-04-20T07:51:24;94464.25;;;11.52;69.22
41078;BME280;26823;42.662;23.352;2023-04-20T07:53:50;94434.97;;;11.54;69.30
41078;BME280;26823;42.662;23.352;2023-04-20T07:56:16;94460.47;;;11.86;67.17
41078;BME280;26823;42.662;23.352;2023-04-20T07:58:41;94446.22;;;11.81;68.02
41078;BME280;26823;42.662;23.352;2023-04-20T08:01:06;94444.34;;;11.95;67.20
41078;BME280;26823;42.662;23.352;2023-04-20T08:03:32;94466.94;;;12.84;64.49
41078;BME280;26823;42.662;23.352;2023-04-20T08:05:58;94453.28;;;12.76;65.71
41078;BME280;26823;42.662;23.352;2023-04-20T08:08:23;94467.97;;;12.88;62.38
41078;BME280;26823;42.662;23.352;2023-04-20T08:10:48;94460.03;;;12.78;63.27
41078;BME280;26823;42.662;23.352;2023-04-20T08:13:14;94469.56;;;13.17;62.45
41078;BME280;26823;42.662;23.352;2023-04-20T08:15:39;94474.47;;;13.29;60.54
41078;BME280;26823;42.662;23.352;2023-04-20T08:18:05;94472.13;;;13.64;60.04
41078;BME280;26823;42.662;23.352;2023-04-20T08:20:30;94463.31;;;13.17;60.79
41078;BME280;26823;42.662;23.352;2023-04-20T08:22:56;94436.63;;;13.61;59.05
41078;BME280;26823;42.662;23.352;2023-04-20T08:25:21;94456.78;;;13.18;60.42
41078;BME280;26823;42.662;23.352;2023-04-20T08:27:46;94466.94;;;13.77;58.62
41078;BME280;26823;42.662;23.352;2023-04-20T08:30:12;94469.84;;;13.44;60.58
41078;BME280;26823;42.662;23.352;2023-04-20T08:32:37;94461.91;;;13.05;61.45
41078;BME280;26823;42.662;23.352;2023-04-20T08:35:05;94458.00;;;12.84;62.38
41078;BME280;26823;42.662;23.352;2023-04-20T08:37:31;94466.44;;;12.68;64.43
41078;BME280;26823;42.662;23.352;2023-04-20T08:39:56;94457.47;;;12.68;63.40
41078;BME280;26823;42.662;23.352;2023-04-20T08:42:22;94460.03;;;12.64;64.41
41078;BME280;26823;42.662;23.352;2023-04-20T08:44:47;94466.53;;;12.63;63.37
41078;BME280;26823;42.662;23.352;2023-04-20T08:47:13;94457.00;;;12.66;63.31
41078;BME280;26823;42.662;23.352;2023-04-20T08:49:38;94465.94;;;13.22;62.92
41078;BME280;26823;42.662;23.352;2023-04-20T08:52:04;94457.09;;;13.44;61.32
41078;BME280;26823;42.662;23.352;2023-04-20T08:54:30;94472.28;;;13.17;60.89
41078;BME280;26823;42.662;23.352;2023-04-20T08:56:56;94464.63;;;13.19;60.29
41078;BME280;26823;42.662;23.352;2023-04-20T08:59:22;94475.19;;;13.07;60.84
41078;BME280;26823;42.662;23.352;2023-04-20T09:01:48;94462.97;;;12.35;61.80
41078;BME280;26823;42.662;23.352;2023-04-20T09:04:24;94475.28;;;13.02;61.24
41078;BME280;26823;42.662;23.352;2023-04-20T09:06:52;94470.47;;;13.13;60.75
41078;BME280;26823;42.662;23.352;2023-04-20T09:09:20;94478.00;;;13.44;61.14
41078;BME280;26823;42.662;23.352;2023-04-20T09:11:46;94472.19;;;12.67;61.46
41078;BME280;26823;42.662;23.352;2023-04-20T09:14:14;94468.50;;;12.44;63.28
41078;BME280;26823;42.662;23.352;2023-04-20T09:16:53;94473.59;;;13.20;60.39
41078;BME280;26823;42.662;23.352;2023-04-20T09:19:26;94471.38;;;12.94;62.87
41078;BME280;26823;42.662;23.352;2023-04-20T09:21:54;94465.63;;;12.82;62.16
41078;BME280;26823;42.662;23.352;2023-04-20T09:24:21;94470.97;;;13.29;62.59
41078;BME280;26823;42.662;23.352;2023-04-20T09:26:47;94456.78;;;13.32;61.46
41078;BME280;26823;42.662;23.352;2023-04-20T09:29:21;94461.00;;;13.24;60.04
41078;BME280;26823;42.662;23.352;2023-04-20T09:31:48;94464.31;;;13.07;60.48
41078;BME280;26823;42.662;23.352;2023-04-20T09:34:14;94449.97;;;12.79;60.79
41078;BME280;26823;42.662;23.352;2023-04-20T09:36:41;94452.00;;;13.01;60.80
41078;BME280;26823;42.662;23.352;2023-04-20T09:39:16;94456.88;;;13.27;59.63
41078;BME280;26823;42.662;23.352;2023-04-20T09:41:49;94451.97;;;13.65;58.91
41078;BME280;26823;42.662;23.352;2023-04-20T09:44:16;94454.66;;;14.02;59.76
41078;BME280;26823;42.662;23.352;2023-04-20T09:46:43;94462.28;;;14.37;56.40
41078;BME280;26823;42.662;23.352;2023-04-20T09:49:12;94446.88;;;14.63;57.33
41078;BME280;26823;42.662;23.352;2023-04-20T09:51:42;94423.81;;;14.92;55.83
41078;BME280;26823;42.662;23.352;2023-04-20T09:54:11;94455.16;;;15.47;53.34
41078;BME280;26823;42.662;23.352;2023-04-20T09:56:37;94447.19;;;15.60;51.81
41078;BME280;26823;42.662;23.352;2023-04-20T09:59:03;94444.72;;;15.32;52.44
41078;BME280;26823;42.662;23.352;2023-04-20T10:01:32;94453.25;;;15.39;52.64
41078;BME280;26823;42.662;23.352;2023-04-20T10:04:01;94427.59;;;15.40;52.71
41078;BME280;26823;42.662;23.352;2023-04-20T10:06:29;94448.34;;;15.85;51.49
41078;BME280;26823;42.662;23.352;2023-04-20T10:08:55;94437.56;;;15.62;50.84
41078;BME280;26823;42.662;23.352;2023-04-20T10:11:28;94444.47;;;15.69;51.47
41078;BME280;26823;42.662;23.352;2023-04-20T10:13:55;94432.41;;;15.43;51.76
41078;BME280;26823;42.662;23.352;2023-04-20T10:16:20;94422.56;;;15.16;52.66
41078;BME280;26823;42.662;23.352;2023-04-20T10:18:57;94426.28;;;15.20;52.46
41078;BME280;26823;42.662;23.352;2023-04-20T10:21:23;94428.31;;;15.06;52.88
41078;BME280;26823;42.662;23.352;2023-04-20T10:23:49;94435.75;;;14.74;54.96
41078;BME280;26823;42.662;23.352;2023-04-20T10:26:15;94427.31;;;14.93;54.61
41078;BME280;26823;42.662;23.352;2023-04-20T10:28:42;94433.75;;;15.06;52.85
41078;BME280;26823;42.662;23.352;2023-04-20T10:31:12;94413.75;;;15.02;53.28
41078;BME280;26823;42.662;23.352;2023-04-20T10:33:55;94429.34;;;15.36;53.43
41078;BME280;26823;42.662;23.352;2023-04-20T10:36:26;94431.47;;;15.57;54.31
41078;BME280;26823;42.662;23.352;2023-04-20T10:38:52;94422.00;;;15.63;52.56
41078;BME280;26823;42.662;23.352;2023-04-20T10:41:17;94415.13;;;15.48;50.88
41078;BME280;26823;42.662;23.352;2023-04-20T10:43:50;94416.09;;;15.70;51.02
41078;BME280;26823;42.662;23.352;2023-04-20T10:46:23;94415.13;;;15.83;50.24
41078;BME280;26823;42.662;23.352;2023-04-20T10:48:59;94415.28;;;15.78;50.84
41078;BME280;26823;42.662;23.352;2023-04-20T10:51:26;94393.75;;;15.24;52.26
41078;BME280;26823;42.662;23.352;2023-04-20T10:54:07;94423.44;;;15.43;51.06
41078;BME280;26823;42.662;23.352;2023-04-20T10:56:40;94420.09;;;15.63;51.13
41078;BME280;26823;42.662;23.352;2023-04-20T10:59:07;94420.56;;;16.18;49.83
41078;BME280;26823;42.662;23.352;2023-04-20T11:01:33;94395.50;;;16.25;48.54
41078;BME280;26823;42.662;23.352;2023-04-20T11:03:59;94416.47;;;16.98;47.65
41078;BME280;26823;42.662;23.352;2023-04-20T11:06:24;94412.09;;;17.06;46.41
41078;BME280;26823;42.662;23.352;2023-04-20T11:08:50;94386.94;;;17.21;45.81
41078;BME280;26823;42.662;23.352;2023-04-20T11:11:19;94413.06;;;17.61;46.14
41078;BME280;26823;42.662;23.352;2023-04-20T11:13:46;94410.50;;;17.77;46.01
41078;BME280;26823;42.662;23.352;2023-04-20T11:16:12;94374.53;;;18.08;45.12
41078;BME280;26823;42.662;23.352;2023-04-20T11:18:54;94406.66;;;18.79;42.84
41078;BME280;26823;42.662;23.352;2023-04-20T11:21:21;94399.69;;;18.23;43.94
41078;BME280;26823;42.662;23.352;2023-04-20T11:23:47;94381.69;;;18.01;43.26
41078;BME280;26823;42.662;23.352;2023-04-20T11:26:13;94372.16;;;17.65;44.43
41078;BME280;26823;42.662;23.352;2023-04-20T11:28:52;94389.13;;;17.07;46.48
41078;BME280;26823;42.662;23.352;2023-04-20T11:31:27;94393.56;;;16.34;47.14
41078;BME280;26823;42.662;23.352;2023-04-20T11:33:53;94399.34;;;16.33;48.04
41078;BME280;26823;42.662;23.352;2023-04-20T11:36:24;94374.88;;;16.54;47.28
41078;BME280;26823;42.662;23.352;2023-04-20T11:38:50;94379.59;;;16.36;48.50
41078;BME280;26823;42.662;23.352;2023-04-20T11:41:16;94374.03;;;16.14;49.57
41078;BME280;26823;42.662;23.352;2023-04-20T11:43:43;94396.19;;;15.78;49.33
41078;BME280;26823;42.662;23.352;2023-04-20T11:46:20;94338.91;;;14.50;50.46
41078;BME280;26823;42.662;23.352;2023-04-20T11:48:46;94383.81;;;15.54;49.40
41078;BME280;26823;42.662;23.352;2023-04-20T11:51:12;94357.72;;;15.53;49.60
41078;BME280;26823;42.662;23.352;2023-04-20T11:53:41;94366.69;;;15.54;48.85
41078;BME280;26823;42.662;23.352;2023-04-20T11:56:07;94375.47;;;15.15;50.66
41078;BME280;26823;42.662;23.352;2023-04-20T11:58:33;94352.88;;;15.32;49.47
41078;BME280;26823;42.662;23.352;2023-04-20T12:01:05;94333.63;;;14.94;48.33
41078;BME280;26823;42.662;23.352;2023-04-20T12:03:35;94356.44;;;15.24;48.65
41078;BME280;26823;42.662;23.352;2023-04-20T12:06:04;94382.88;;;15.50;48.94
41078;BME280;26823;42.662;23.352;2023-04-20T12:08:29;94350.03;;;15.29;49.66
41078;BME280;26823;42.662;23.352;2023-04-20T12:10:55;94351.00;;;15.51;48.42
41078;BME280;26823;42.662;23.352;2023-04-20T12:13:21;94375.97;;;15.79;47.61
41078;BME280;26823;42.662;23.352;2023-04-20T12:15:46;94370.38;;;15.49;49.10
41078;BME280;26823;42.662;23.352;2023-04-20T12:18:18;94356.59;;;15.19;49.90
41078;BME280;26823;42.662;23.352;2023-04-20T12:20:44;94366.66;;;15.01;51.01
41078;BME280;26823;42.662;23.352;2023-04-20T12:23:11;94368.13;;;15.77;48.95
41078;BME280;26823;42.662;23.352;2023-04-20T12:25:36;94381.09;;;15.54;50.30
41078;BME280;26823;42.662;23.352;2023-04-20T12:28:11;94370.84;;;15.51;50.40
41078;BME280;26823;42.662;23.352;2023-04-20T12:30:37;94380.25;;;14.92;50.94
41078;BME280;26823;42.662;23.352;2023-04-20T12:33:03;94377.06;;;14.99;51.05
41078;BME280;26823;42.662;23.352;2023-04-20T12:35:28;94382.09;;;14.34;53.20
41078;BME280;26823;42.662;23.352;2023-04-20T12:37:54;94364.09;;;14.24;54.28
41078;BME280;26823;42.662;23.352;2023-04-20T12:40:21;94369.91;;;14.00;55.48
41078;BME280;26823;42.662;23.352;2023-04-20T12:42:46;94367.84;;;14.06;54.91
41078;BME280;26823;42.662;23.352;2023-04-20T12:45:12;94368.81;;;14.10;55.15
41078;BME280;26823;42.662;23.352;2023-04-20T12:47:37;94363.59;;;14.22;53.49
41078;BME280;26823;42.662;23.352;2023-04-20T12:50:03;94366.97;;;14.19;54.18
41078;BME280;26823;42.662;23.352;2023-04-20T12:52:28;94366.03;;;13.92;55.89